Edinburgh Airport, United Kingdom

1:07 AM BST on October 22, 2014 (GMT +0100)
Edinburgh Airport | Change Station
CLOSE
Current Station
Airport
Location: Edinburgh Airport,
Elevation: 135 ft
Nearby Weather Stations

Elev 135 ft 55.95 °N, 3.35 °W | Updated 17 minutes ago

Clear
Clear
46 °F
Feels Like 40 °F
N
14
Wind Variable Wind from West

Today
High -- | Low -- °F
--% Chance of Precip.
Yesterday
High -- | Low -- °F
Precip. -- in
7:58 AM 5:56 PM
Waning Crescent, 4% visible
Pressure 29.98 in
Visibility -9999.0 miles
Clouds
Windchill 40 °F
Dew Point 37 °F
Humidity 71%
Rainfall 0.00 in
Snow Depth Not available.
UV Not available.
Pollen Not available.
Air Quality Not available.
Flu Activity Not available.
METAR EGPH 212350Z 27012KT CAVOK 08/03 Q1015

More Conditions Fewer Conditions

Pressure 29.98 in
Visibility -9999.0 miles
Clouds
Windchill 40 °F
Dew Point 37 °F
Humidity 71%
Rainfall 0.00 in
Snow Depth Not available.
UV Not available.
Pollen Not available.
Air Quality Not available.
Flu Activity Not available.
METAR EGPH 212350Z 27012KT CAVOK 08/03 Q1015

More Conditions Fewer Conditions

10-Day Weather Forecast

Almanac

Astronomy

Oct. 22, 2014 Rise Set
Actual Time 7:58 AM BST 5:56 PM BST
Civil Twilight 7:20 AM BST 6:34 PM BST
Nautical Twilight 6:37 AM BST 7:17 PM BST
Astronomical Twilight 5:54 AM BST 8:00 PM BST
Moon 6:10 AM BST 5:25 PM BST
Length of Visible Light 11h 13m
Length of Day
9h 57m
Tomorrow will be 4m 28s shorter.
Waning Crescent, 4% of the Moon is Illuminated
Oct 21
Waning Crescent
Oct 23
New
Oct 30
First Quarter
Nov 6
Full
Nov 14
Last Quarter

Yesterday's Extremes

Country Highs Country Lows

Community

WunderPhotos

Upload Photos

1,763,824 photos uploaded!

Nearby

Snow Depth

Not available.

Earthquake Activity

City Distance Mag. Time & Date
No recent earthquake activity has been reported nearby.
Minimum magnitude displayed is 2.5.

Coastal Water Temperatures

Place Temperature
No Stations Reporting

Nearby Weather Stations